createdAt,value
2018-03-25T00:01:11.468Z,6.90
2018-03-25T00:03:38.931Z,6.90
2018-03-25T00:06:06.894Z,6.90
2018-03-25T00:08:34.352Z,6.80
2018-03-25T00:11:02.432Z,6.80
2018-03-25T00:13:29.873Z,6.70
2018-03-25T00:15:57.345Z,6.70
2018-03-25T00:18:24.798Z,6.70
2018-03-25T00:20:52.357Z,6.60
2018-03-25T00:23:20.350Z,6.70
2018-03-25T00:25:48.585Z,6.70
2018-03-25T00:28:16.687Z,6.70
2018-03-25T00:30:44.639Z,6.70
2018-03-25T00:33:12.549Z,6.70
2018-03-25T00:35:40.481Z,6.70
2018-03-25T00:38:07.935Z,6.70
2018-03-25T00:40:35.393Z,6.60
2018-03-25T00:43:03.481Z,6.60
2018-03-25T00:45:30.964Z,6.60
2018-03-25T00:47:58.434Z,6.60
2018-03-25T00:50:25.889Z,6.60
2018-03-25T00:52:53.414Z,6.60
2018-03-25T00:55:20.818Z,6.60
2018-03-25T00:57:48.725Z,6.50
2018-03-25T01:00:16.944Z,6.50
2018-03-25T01:02:44.425Z,6.50
2018-03-25T01:05:12.305Z,6.40
2018-03-25T01:07:39.817Z,6.40
2018-03-25T01:10:07.250Z,6.40
2018-03-25T01:12:35.801Z,6.30
2018-03-25T01:15:03.317Z,6.30
2018-03-25T01:17:30.782Z,6.40
2018-03-25T01:19:58.229Z,6.30
2018-03-25T01:22:25.705Z,6.30
2018-03-25T01:24:53.253Z,6.40
2018-03-25T01:27:21.063Z,6.40
2018-03-25T01:29:49.017Z,6.30
2018-03-25T01:32:16.550Z,6.30
2018-03-25T01:34:44.446Z,6.30
2018-03-25T01:37:12.414Z,6.30
2018-03-25T01:39:40.480Z,6.20
2018-03-25T01:42:07.957Z,6.20
2018-03-25T01:44:35.817Z,6.20
2018-03-25T01:47:03.266Z,6.20
2018-03-25T01:49:30.740Z,6.20
2018-03-25T01:51:58.222Z,6.10
2018-03-25T01:54:26.440Z,6.10
2018-03-25T01:56:54.440Z,6.10
2018-03-25T01:59:22.670Z,6.00
2018-03-25T02:01:50.768Z,6.10
2018-03-25T02:04:18.208Z,6.00
2018-03-25T02:06:46.108Z,6.00
2018-03-25T02:09:13.573Z,5.90
2018-03-25T02:11:42.261Z,5.90
2018-03-25T02:14:09.697Z,5.90
2018-03-25T02:16:38.321Z,5.80
2018-03-25T02:19:05.756Z,5.80
2018-03-25T02:21:34.118Z,6.00
2018-03-25T02:24:01.629Z,6.00
2018-03-25T02:26:29.088Z,6.00
2018-03-25T02:28:56.982Z,5.90
2018-03-25T02:31:24.827Z,5.90
2018-03-25T02:33:52.310Z,5.90
2018-03-25T02:36:20.183Z,5.80
2018-03-25T02:38:47.674Z,5.80
2018-03-25T02:41:15.941Z,5.70
2018-03-25T02:43:44.705Z,5.70
2018-03-25T02:46:12.873Z,5.70
2018-03-25T02:48:40.338Z,5.70
2018-03-25T02:51:08.579Z,5.60
2018-03-25T02:53:36.063Z,5.60
2018-03-25T02:56:03.929Z,5.50
2018-03-25T02:58:31.867Z,5.50
2018-03-25T03:00:59.329Z,5.50
2018-03-25T03:03:26.784Z,5.40
2018-03-25T03:05:54.679Z,5.40
2018-03-25T03:08:22.136Z,5.40
2018-03-25T03:10:50.851Z,5.30
2018-03-25T03:13:19.060Z,5.30
2018-03-25T03:15:47.021Z,5.30
2018-03-25T03:18:14.496Z,5.30
2018-03-25T03:20:42.006Z,5.20
2018-03-25T03:23:10.255Z,5.20
2018-03-25T03:25:38.067Z,5.20
2018-03-25T03:28:05.983Z,5.20
2018-03-25T03:30:33.756Z,5.20
2018-03-25T03:33:01.221Z,5.20
2018-03-25T03:35:29.848Z,5.20
2018-03-25T03:37:57.308Z,5.20
2018-03-25T03:40:24.862Z,5.20
2018-03-25T03:42:52.421Z,5.20
2018-03-25T03:45:20.388Z,5.20
2018-03-25T03:47:47.860Z,5.10
2018-03-25T03:50:15.353Z,5.10
2018-03-25T03:52:43.556Z,5.20
2018-03-25T03:55:11.227Z,5.10
2018-03-25T03:57:38.691Z,5.20
2018-03-25T04:00:06.218Z,5.20
2018-03-25T04:02:34.673Z,5.10
2018-03-25T04:05:02.533Z,5.10
2018-03-25T04:07:30.299Z,5.10
2018-03-25T04:09:57.748Z,5.10
2018-03-25T04:12:25.421Z,5.10
2018-03-25T04:14:52.888Z,5.10
2018-03-25T04:17:20.368Z,5.10
2018-03-25T04:19:47.896Z,5.10
2018-03-25T04:22:15.552Z,5.10
2018-03-25T04:24:43.064Z,5.10
2018-03-25T04:27:10.516Z,5.10
2018-03-25T04:29:38.797Z,5.10
2018-03-25T04:32:06.308Z,5.20
2018-03-25T04:34:34.269Z,5.20
2018-03-25T04:37:02.104Z,5.20
2018-03-25T04:39:30.009Z,5.20
2018-03-25T04:41:57.456Z,5.20
2018-03-25T04:44:26.778Z,5.20
2018-03-25T04:46:54.229Z,5.20
2018-03-25T04:49:21.678Z,5.30
2018-03-25T04:51:49.152Z,5.40
2018-03-25T04:54:17.392Z,5.50
2018-03-25T04:56:44.958Z,5.50
2018-03-25T04:59:12.925Z,5.60
2018-03-25T05:01:41.458Z,5.60
2018-03-25T05:04:08.898Z,5.60
2018-03-25T05:06:37.512Z,5.60
2018-03-25T05:09:04.985Z,5.60
2018-03-25T05:11:32.763Z,5.60
2018-03-25T05:14:00.644Z,5.60
2018-03-25T05:16:28.121Z,5.60
2018-03-25T05:18:56.346Z,5.60
2018-03-25T05:21:23.823Z,5.60
2018-03-25T05:23:51.334Z,5.60
2018-03-25T05:26:18.805Z,5.60
2018-03-25T05:28:46.257Z,5.60
2018-03-25T05:31:14.006Z,5.60
2018-03-25T05:33:41.455Z,5.60
2018-03-25T05:36:09.476Z,5.60
2018-03-25T05:38:36.921Z,5.60
2018-03-25T05:41:04.476Z,5.70
2018-03-25T05:43:32.257Z,5.70
2018-03-25T05:46:00.140Z,5.70
2018-03-25T05:48:28.340Z,5.70
2018-03-25T05:50:56.781Z,5.70
2018-03-25T05:53:24.526Z,5.60
2018-03-25T05:55:51.987Z,5.70
2018-03-25T05:58:19.459Z,5.70
2018-03-25T06:00:47.831Z,5.70
2018-03-25T06:03:15.460Z,5.70
2018-03-25T06:05:43.462Z,5.80
2018-03-25T06:08:10.940Z,5.80
2018-03-25T06:10:38.699Z,5.80
2018-03-25T06:13:06.166Z,5.90
2018-03-25T06:15:34.393Z,5.90
2018-03-25T06:18:01.865Z,5.90
2018-03-25T06:20:29.945Z,5.90
2018-03-25T06:22:57.502Z,5.90
2018-03-25T06:25:24.948Z,6.00
2018-03-25T06:27:52.421Z,6.00
2018-03-25T06:30:20.187Z,6.00
2018-03-25T06:32:47.657Z,6.10
2018-03-25T06:35:16.269Z,6.10
2018-03-25T06:37:43.960Z,6.10
2018-03-25T06:40:11.412Z,6.10
2018-03-25T06:42:38.871Z,6.10
2018-03-25T06:45:07.702Z,6.10
2018-03-25T06:47:35.160Z,6.10
2018-03-25T06:50:03.734Z,6.20
2018-03-25T06:52:31.184Z,6.20
2018-03-25T06:54:59.422Z,6.30
2018-03-25T06:57:26.886Z,6.30
2018-03-25T06:59:54.688Z,6.30
2018-03-25T07:02:22.141Z,6.40
2018-03-25T07:04:49.816Z,6.40
2018-03-25T07:07:18.038Z,6.50
2018-03-25T07:09:45.885Z,6.40
2018-03-25T07:12:13.490Z,6.50
2018-03-25T07:14:40.971Z,6.50
2018-03-25T07:17:08.432Z,6.50
2018-03-25T07:19:36.690Z,6.60
2018-03-25T07:22:04.519Z,6.60
2018-03-25T07:24:32.317Z,6.60
2018-03-25T07:27:00.560Z,6.80
2018-03-25T07:29:28.010Z,6.70
2018-03-25T07:31:55.914Z,6.80
2018-03-25T07:34:23.381Z,6.90
2018-03-25T07:36:51.281Z,6.90
2018-03-25T07:39:18.735Z,7.00
2018-03-25T07:41:46.198Z,7.10
2018-03-25T07:44:14.042Z,7.10
2018-03-25T07:46:42.612Z,7.20
2018-03-25T07:49:10.061Z,7.20
2018-03-25T07:51:37.575Z,7.20
2018-03-25T07:54:05.133Z,7.20
2018-03-25T07:56:32.570Z,7.20
2018-03-25T07:59:00.375Z,7.20
2018-03-25T08:01:27.813Z,7.20
2018-03-25T08:03:55.613Z,7.30
2018-03-25T08:06:23.320Z,7.30
2018-03-25T08:08:50.788Z,7.30
2018-03-25T08:11:18.794Z,7.40
2018-03-25T08:13:46.254Z,7.40
2018-03-25T08:16:13.800Z,7.50
2018-03-25T08:18:41.957Z,7.60
2018-03-25T08:21:09.414Z,7.60
2018-03-25T08:23:37.104Z,7.70
2018-03-25T08:26:04.675Z,7.80
2018-03-25T08:28:32.116Z,7.90
2018-03-25T08:31:00.081Z,8.00
2018-03-25T08:33:27.952Z,8.10
2018-03-25T08:35:55.743Z,8.10
2018-03-25T08:38:23.982Z,8.20
2018-03-25T08:40:51.545Z,8.20
2018-03-25T08:43:19.313Z,8.20
2018-03-25T08:45:46.997Z,8.30
2018-03-25T08:48:14.738Z,8.30
2018-03-25T08:50:42.500Z,8.30
2018-03-25T08:53:09.995Z,8.40
2018-03-25T08:55:38.789Z,8.40
2018-03-25T08:58:06.982Z,8.50
2018-03-25T09:00:34.458Z,8.50
2018-03-25T09:03:01.934Z,8.60
2018-03-25T09:05:29.795Z,8.60
2018-03-25T09:07:57.246Z,8.70
2018-03-25T09:10:25.010Z,8.70
2018-03-25T09:12:52.542Z,8.80
2018-03-25T09:15:20.240Z,8.90
2018-03-25T09:17:47.905Z,8.90
2018-03-25T09:20:16.353Z,9.00
2018-03-25T09:22:44.181Z,9.10
2018-03-25T09:25:12.389Z,9.10
2018-03-25T09:27:39.876Z,9.20
2018-03-25T09:30:07.337Z,9.20
2018-03-25T09:32:35.157Z,9.20
2018-03-25T09:35:03.102Z,9.20
2018-03-25T09:37:31.886Z,9.40
2018-03-25T09:40:00.131Z,9.50
2018-03-25T09:42:28.377Z,9.50
2018-03-25T09:44:56.276Z,9.60
2018-03-25T09:47:23.833Z,9.70
2018-03-25T09:49:51.798Z,9.70
2018-03-25T09:52:19.321Z,9.80
2018-03-25T09:54:46.763Z,9.80
2018-03-25T09:57:14.983Z,9.90
2018-03-25T09:59:42.458Z,9.90
2018-03-25T10:02:10.877Z,10.00
2018-03-25T10:04:39.635Z,10.10
2018-03-25T10:07:07.083Z,10.10
2018-03-25T10:09:34.569Z,10.20
2018-03-25T10:12:02.509Z,10.20
2018-03-25T10:14:30.795Z,10.30
2018-03-25T10:16:58.767Z,10.30
2018-03-25T10:19:27.070Z,10.50
2018-03-25T10:21:55.129Z,10.40
2018-03-25T10:24:22.801Z,10.50
2018-03-25T10:26:51.219Z,10.60
2018-03-25T10:29:19.110Z,10.70
2018-03-25T10:31:47.233Z,10.70
2018-03-25T10:34:15.498Z,10.80
2018-03-25T10:36:44.102Z,10.90
2018-03-25T10:39:11.823Z,10.90
2018-03-25T10:41:39.410Z,11.00
2018-03-25T10:44:07.289Z,11.10
2018-03-25T10:46:34.744Z,11.20
2018-03-25T10:49:02.649Z,11.30
2018-03-25T10:51:30.891Z,11.60
2018-03-25T10:53:58.364Z,11.60
2018-03-25T10:56:25.910Z,11.70
2018-03-25T10:58:53.368Z,11.90
2018-03-25T11:01:21.078Z,12.00
2018-03-25T11:03:49.364Z,12.30
2018-03-25T11:06:18.137Z,12.40
2018-03-25T11:08:46.351Z,12.50
2018-03-25T11:11:14.991Z,12.50
2018-03-25T11:13:43.476Z,12.70
2018-03-25T11:16:11.746Z,12.80
2018-03-25T11:18:39.694Z,12.80
2018-03-25T11:21:07.173Z,12.90
2018-03-25T11:23:35.381Z,13.20
2018-03-25T11:26:02.866Z,13.10
2018-03-25T11:28:30.326Z,13.30
2018-03-25T11:30:57.885Z,13.50
2018-03-25T11:33:25.699Z,13.70
2018-03-25T11:35:54.302Z,14.10
2018-03-25T11:38:23.057Z,14.40
2018-03-25T11:40:50.618Z,14.40
2018-03-25T11:43:19.261Z,14.80
2018-03-25T11:45:46.806Z,14.80
2018-03-25T11:48:14.281Z,15.00
2018-03-25T11:50:41.963Z,15.20
2018-03-25T11:53:09.467Z,15.30
2018-03-25T11:55:36.876Z,15.50
2018-03-25T11:58:04.380Z,15.70
2018-03-25T12:00:31.949Z,16.00
2018-03-25T12:02:59.444Z,16.10
2018-03-25T12:05:27.609Z,16.30
2018-03-25T12:07:55.678Z,16.50
2018-03-25T12:10:23.742Z,16.70
2018-03-25T12:12:51.663Z,16.80
2018-03-25T12:15:19.127Z,16.90
2018-03-25T12:17:47.145Z,17.00
2018-03-25T12:20:14.945Z,17.20
2018-03-25T12:22:43.391Z,17.50
2018-03-25T12:25:12.349Z,17.40
2018-03-25T12:27:40.238Z,17.40
2018-03-25T12:30:07.752Z,17.30
2018-03-25T12:32:35.773Z,17.10
2018-03-25T12:35:03.748Z,16.90
2018-03-25T12:37:31.226Z,16.80
2018-03-25T12:39:59.684Z,16.60
2018-03-25T12:42:27.129Z,16.50
2018-03-25T12:44:55.201Z,16.40
2018-03-25T12:47:22.647Z,16.40
2018-03-25T12:49:50.486Z,16.20
2018-03-25T12:52:18.194Z,16.10
2018-03-25T12:54:45.723Z,16.00
2018-03-25T12:57:13.543Z,15.90
2018-03-25T12:59:41.782Z,15.60
2018-03-25T13:02:09.213Z,15.60
2018-03-25T13:04:37.124Z,15.50
2018-03-25T13:07:04.596Z,15.30
2018-03-25T13:09:33.295Z,15.10
2018-03-25T13:12:01.736Z,15.00
2018-03-25T13:14:29.261Z,15.00
2018-03-25T13:16:56.734Z,15.00
2018-03-25T13:19:24.605Z,14.80
2018-03-25T13:21:52.088Z,14.70
2018-03-25T13:24:19.582Z,14.50
2018-03-25T13:26:47.670Z,14.30
2018-03-25T13:29:15.475Z,14.20
2018-03-25T13:31:42.932Z,14.20
2018-03-25T13:34:11.403Z,14.10
2018-03-25T13:36:39.881Z,14.10
2018-03-25T13:39:07.324Z,14.00
2018-03-25T13:41:34.799Z,14.00
2018-03-25T13:44:03.336Z,13.80
2018-03-25T13:46:30.811Z,13.80
2018-03-25T13:48:58.911Z,13.80
2018-03-25T13:51:26.769Z,13.70
2018-03-25T13:53:54.240Z,13.70
2018-03-25T13:56:21.712Z,13.60
2018-03-25T13:58:50.472Z,13.60
2018-03-25T14:01:18.447Z,13.60
2018-03-25T14:03:45.898Z,13.60
2018-03-25T14:06:13.793Z,13.60
2018-03-25T14:08:42.045Z,13.50
2018-03-25T14:11:09.850Z,13.50
2018-03-25T14:13:37.360Z,13.50
2018-03-25T14:16:04.850Z,13.50
2018-03-25T14:18:33.504Z,13.50
2018-03-25T14:21:00.992Z,13.50
2018-03-25T14:23:29.229Z,13.50
2018-03-25T14:25:56.890Z,13.50
2018-03-25T14:28:24.345Z,13.50
2018-03-25T14:30:52.452Z,13.60
2018-03-25T14:33:21.108Z,13.50
2018-03-25T14:35:49.137Z,13.40
2018-03-25T14:38:16.591Z,13.40
2018-03-25T14:40:44.063Z,13.40
2018-03-25T14:43:12.117Z,13.40
2018-03-25T14:45:39.592Z,13.40
2018-03-25T14:48:07.049Z,13.40
2018-03-25T14:50:35.078Z,13.40
2018-03-25T14:53:03.286Z,13.30
2018-03-25T14:55:30.853Z,13.30
2018-03-25T14:57:58.310Z,13.30
2018-03-25T15:00:25.791Z,13.30
2018-03-25T15:02:53.333Z,13.30
2018-03-25T15:05:21.243Z,13.30
2018-03-25T15:07:49.657Z,13.30
2018-03-25T15:10:17.909Z,13.30
2018-03-25T15:12:45.412Z,13.20
2018-03-25T15:15:12.978Z,13.20
2018-03-25T15:17:40.422Z,13.20
2018-03-25T15:20:08.392Z,13.20
2018-03-25T15:22:36.148Z,13.20
2018-03-25T15:25:03.677Z,13.10
2018-03-25T15:27:31.190Z,13.00
2018-03-25T15:29:59.016Z,13.00
2018-03-25T15:32:26.448Z,12.90
2018-03-25T15:34:55.610Z,12.90
2018-03-25T15:37:23.065Z,12.90
2018-03-25T15:39:50.563Z,12.90
2018-03-25T15:42:18.013Z,12.90
2018-03-25T15:44:46.610Z,13.00
2018-03-25T15:47:14.110Z,13.00
2018-03-25T15:49:42.002Z,13.00
2018-03-25T15:52:09.740Z,13.00
2018-03-25T15:54:38.350Z,13.00
2018-03-25T15:57:07.299Z,13.00
2018-03-25T15:59:34.748Z,13.00
2018-03-25T16:02:02.300Z,13.00
2018-03-25T16:04:30.604Z,13.00
2018-03-25T16:06:58.070Z,13.00
2018-03-25T16:09:25.613Z,13.00
2018-03-25T16:11:53.404Z,13.00
2018-03-25T16:14:21.332Z,13.00
2018-03-25T16:16:49.010Z,13.00
2018-03-25T16:19:17.142Z,13.00
2018-03-25T16:21:44.824Z,13.00
2018-03-25T16:24:12.373Z,13.00
2018-03-25T16:26:39.904Z,13.00
2018-03-25T16:29:09.063Z,12.90
2018-03-25T16:31:36.536Z,12.90
2018-03-25T16:34:04.557Z,12.90
2018-03-25T16:36:32.463Z,12.90
2018-03-25T16:39:00.096Z,12.90
2018-03-25T16:41:27.572Z,12.90
2018-03-25T16:43:55.515Z,12.90
2018-03-25T16:46:23.059Z,12.90
2018-03-25T16:48:50.532Z,12.90
2018-03-25T16:51:18.038Z,12.90
2018-03-25T16:53:46.906Z,12.90
2018-03-25T16:56:14.472Z,12.90
2018-03-25T16:58:42.454Z,12.90
2018-03-25T17:01:09.942Z,12.90
2018-03-25T17:03:37.620Z,12.90
2018-03-25T17:06:05.832Z,12.90
2018-03-25T17:08:34.201Z,12.80
2018-03-25T17:11:02.184Z,12.70
2018-03-25T17:13:30.581Z,12.60
2018-03-25T17:15:59.036Z,12.60
2018-03-25T17:18:26.503Z,12.60
2018-03-25T17:20:54.362Z,12.60
2018-03-25T17:23:21.911Z,12.50
2018-03-25T17:25:49.398Z,12.50
2018-03-25T17:28:17.654Z,12.40
2018-03-25T17:30:45.656Z,12.30
2018-03-25T17:33:14.070Z,12.30
2018-03-25T17:35:42.119Z,12.30
2018-03-25T17:38:09.609Z,12.30
2018-03-25T17:40:37.609Z,12.30
2018-03-25T17:43:05.736Z,12.30
2018-03-25T17:45:33.374Z,12.30
2018-03-25T17:48:00.865Z,12.20
2018-03-25T17:50:28.815Z,12.20
2018-03-25T17:52:56.278Z,12.20
2018-03-25T17:55:24.102Z,12.10
2018-03-25T17:57:52.338Z,12.10
2018-03-25T18:00:19.820Z,12.00
2018-03-25T18:02:47.430Z,12.00
2018-03-25T18:05:15.445Z,12.00
2018-03-25T18:07:42.997Z,11.90
2018-03-25T18:10:10.887Z,11.90
2018-03-25T18:12:39.401Z,11.90
2018-03-25T18:15:07.134Z,11.90
2018-03-25T18:17:35.346Z,11.80
2018-03-25T18:20:03.310Z,11.80
2018-03-25T18:22:30.756Z,11.80
2018-03-25T18:24:58.291Z,11.80
2018-03-25T18:27:26.545Z,11.80
2018-03-25T18:29:54.047Z,11.80
2018-03-25T18:32:21.493Z,11.70
2018-03-25T18:34:49.495Z,11.70
2018-03-25T18:37:17.482Z,11.70
2018-03-25T18:39:44.983Z,11.70
2018-03-25T18:42:13.225Z,11.60
2018-03-25T18:44:41.057Z,11.60
2018-03-25T18:47:08.585Z,11.60
2018-03-25T18:49:36.040Z,11.60
2018-03-25T18:52:03.607Z,11.60
2018-03-25T18:54:31.096Z,11.60
2018-03-25T18:56:58.675Z,11.60
2018-03-25T18:59:26.156Z,11.60
2018-03-25T19:01:54.759Z,11.60
2018-03-25T19:04:22.860Z,11.60
2018-03-25T19:06:50.746Z,11.60
2018-03-25T19:09:18.684Z,11.60
2018-03-25T19:11:47.337Z,11.60
2018-03-25T19:14:15.954Z,11.60
2018-03-25T19:16:44.369Z,11.60
2018-03-25T19:19:13.769Z,11.60
2018-03-25T19:21:41.434Z,11.50
2018-03-25T19:24:08.935Z,11.60
2018-03-25T19:26:36.889Z,11.60
2018-03-25T19:29:05.126Z,11.70
2018-03-25T19:31:33.370Z,11.70
2018-03-25T19:34:01.648Z,11.70
2018-03-25T19:36:30.287Z,11.70
2018-03-25T19:38:58.496Z,11.70
2018-03-25T19:41:26.064Z,11.60
2018-03-25T19:43:54.725Z,11.70
2018-03-25T19:46:22.208Z,11.60
2018-03-25T19:48:49.734Z,11.60
2018-03-25T19:51:17.977Z,11.60
2018-03-25T19:53:45.463Z,11.50
2018-03-25T19:56:14.694Z,11.50
2018-03-25T19:58:43.675Z,11.50
2018-03-25T20:01:11.961Z,11.50
2018-03-25T20:03:40.403Z,11.50
2018-03-25T20:06:08.129Z,11.50
2018-03-25T20:08:35.574Z,11.50
2018-03-25T20:11:03.260Z,11.40
2018-03-25T20:13:30.742Z,11.40
2018-03-25T20:15:58.977Z,11.40
2018-03-25T20:18:26.459Z,11.30
2018-03-25T20:20:54.526Z,11.30
2018-03-25T20:23:22.042Z,11.30
2018-03-25T20:25:49.494Z,11.30
2018-03-25T20:28:17.057Z,11.20
2018-03-25T20:30:44.523Z,11.20
2018-03-25T20:33:12.014Z,11.20
2018-03-25T20:35:39.949Z,11.20
2018-03-25T20:38:07.460Z,11.20
2018-03-25T20:40:35.729Z,11.20
2018-03-25T20:43:03.475Z,11.20
2018-03-25T20:45:31.191Z,11.20
2018-03-25T20:47:59.462Z,11.20
2018-03-25T20:50:27.178Z,11.20
2018-03-25T20:52:54.628Z,11.20
2018-03-25T20:55:22.152Z,11.20
2018-03-25T20:57:49.764Z,11.20
2018-03-25T21:00:17.262Z,11.20
2018-03-25T21:02:47.279Z,11.20
2018-03-25T21:05:15.254Z,11.20
2018-03-25T21:07:43.385Z,11.20
2018-03-25T21:10:13.610Z,11.20
2018-03-25T21:12:41.833Z,11.30
2018-03-25T21:15:09.338Z,11.30
2018-03-25T21:17:37.550Z,11.40
2018-03-25T21:20:05.436Z,11.30
2018-03-25T21:22:33.329Z,11.40
2018-03-25T21:25:01.479Z,11.40
2018-03-25T21:27:28.922Z,11.40
2018-03-25T21:29:56.814Z,11.40
2018-03-25T21:32:24.375Z,11.30
2018-03-25T21:34:52.243Z,11.30
2018-03-25T21:37:20.520Z,11.30
2018-03-25T21:39:48.342Z,11.30
2018-03-25T21:42:15.903Z,11.30
2018-03-25T21:44:43.738Z,11.30
2018-03-25T21:47:11.967Z,11.20
2018-03-25T21:49:39.480Z,11.20
2018-03-25T21:52:06.958Z,11.20
2018-03-25T21:54:34.566Z,11.20
2018-03-25T21:57:03.549Z,11.20
2018-03-25T21:59:31.036Z,11.20
2018-03-25T22:01:59.397Z,11.20
2018-03-25T22:04:27.584Z,11.20
2018-03-25T22:06:55.886Z,11.20
2018-03-25T22:09:23.694Z,11.20
2018-03-25T22:11:52.426Z,11.10
2018-03-25T22:14:19.889Z,11.10
2018-03-25T22:16:47.375Z,11.20
2018-03-25T22:19:14.837Z,11.10
2018-03-25T22:21:42.629Z,11.10
2018-03-25T22:24:10.553Z,11.10
2018-03-25T22:26:38.057Z,11.10
2018-03-25T22:29:05.509Z,11.10
2018-03-25T22:31:33.153Z,11.10
2018-03-25T22:34:00.593Z,11.10
2018-03-25T22:36:28.486Z,11.10
2018-03-25T22:38:55.941Z,11.10
2018-03-25T22:41:23.525Z,11.10
2018-03-25T22:43:52.084Z,11.00
2018-03-25T22:46:19.637Z,11.00
2018-03-25T22:48:47.201Z,11.00
2018-03-25T22:51:14.868Z,11.00
2018-03-25T22:53:42.331Z,11.00
2018-03-25T22:56:10.306Z,11.00
2018-03-25T22:58:38.534Z,10.90
2018-03-25T23:01:05.987Z,10.90
2018-03-25T23:03:34.185Z,10.90
2018-03-25T23:06:02.465Z,10.80
2018-03-25T23:08:30.025Z,10.80
2018-03-25T23:10:57.919Z,10.80
2018-03-25T23:13:26.670Z,10.80
2018-03-25T23:15:54.120Z,10.80
2018-03-25T23:18:21.897Z,10.70
2018-03-25T23:20:49.413Z,10.70
2018-03-25T23:23:16.986Z,10.70
2018-03-25T23:25:44.521Z,10.70
2018-03-25T23:28:12.372Z,10.70
2018-03-25T23:30:40.669Z,10.80
2018-03-25T23:33:08.165Z,10.70
2018-03-25T23:35:35.944Z,10.80
2018-03-25T23:38:03.799Z,10.80
2018-03-25T23:40:32.192Z,10.80
2018-03-25T23:42:59.845Z,10.80
2018-03-25T23:45:27.772Z,10.70
2018-03-25T23:47:55.233Z,10.70
2018-03-25T23:50:23.064Z,10.60
2018-03-25T23:52:51.488Z,10.60
2018-03-25T23:55:19.032Z,10.50
2018-03-25T23:57:46.475Z,10.50
